createdAt,value
2019-05-17T00:02:06.812Z,10.46
2019-05-17T00:04:36.520Z,10.48
2019-05-17T00:07:06.782Z,10.19
2019-05-17T00:09:37.508Z,10.18
2019-05-17T00:12:07.699Z,10.24
2019-05-17T00:14:37.817Z,10.33
2019-05-17T00:17:08.042Z,10.48
2019-05-17T00:19:38.183Z,10.56
2019-05-17T00:22:08.360Z,10.45
2019-05-17T00:24:38.477Z,10.49
2019-05-17T00:27:08.668Z,10.49
2019-05-17T00:29:38.892Z,10.40
2019-05-17T00:32:09.133Z,10.36
2019-05-17T00:34:40.098Z,10.40
2019-05-17T00:37:10.302Z,10.35
2019-05-17T00:39:40.466Z,10.36
2019-05-17T00:42:11.712Z,10.47
2019-05-17T00:44:42.031Z,10.40
2019-05-17T00:47:12.193Z,10.38
2019-05-17T00:49:42.346Z,10.42
2019-05-17T00:52:12.520Z,10.45
2019-05-17T00:54:42.616Z,10.44
2019-05-17T00:57:12.768Z,10.50
2019-05-17T00:59:42.911Z,10.52
2019-05-17T01:02:13.177Z,10.37
2019-05-17T01:04:43.398Z,10.24
2019-05-17T01:07:13.833Z,10.24
2019-05-17T01:09:47.119Z,10.47
2019-05-17T01:12:16.888Z,10.46
2019-05-17T01:14:46.993Z,10.47
2019-05-17T01:17:17.206Z,10.36
2019-05-17T01:19:50.299Z,10.45
2019-05-17T01:22:20.522Z,10.58
2019-05-17T01:24:50.748Z,10.53
2019-05-17T01:27:20.908Z,10.61
2019-05-17T01:29:51.370Z,10.54
2019-05-17T01:32:21.513Z,10.53
2019-05-17T01:34:51.642Z,10.60
2019-05-17T01:37:22.901Z,10.39
2019-05-17T01:39:53.030Z,10.47
2019-05-17T01:42:28.418Z,10.42
2019-05-17T01:44:59.070Z,10.43
2019-05-17T01:47:29.250Z,10.36
2019-05-17T01:49:59.392Z,10.32
2019-05-17T01:52:31.653Z,10.46
2019-05-17T01:55:01.815Z,10.45
2019-05-17T01:57:32.859Z,10.46
2019-05-17T02:00:03.028Z,10.34
2019-05-17T02:02:37.506Z,10.42
2019-05-17T02:05:08.107Z,10.24
2019-05-17T02:07:38.254Z,10.22
2019-05-17T02:10:10.779Z,10.27
2019-05-17T02:12:40.954Z,10.35
2019-05-17T02:15:11.915Z,10.35
2019-05-17T02:17:42.222Z,10.39
2019-05-17T02:20:14.107Z,10.33
2019-05-17T02:22:44.350Z,10.44
2019-05-17T02:25:16.703Z,10.39
2019-05-17T02:27:47.227Z,10.36
2019-05-17T02:30:17.641Z,10.44
2019-05-17T02:32:49.116Z,10.34
2019-05-17T02:35:19.381Z,10.39
2019-05-17T02:37:53.192Z,10.39
2019-05-17T02:40:22.762Z,10.35
2019-05-17T02:42:53.663Z,10.28
2019-05-17T02:45:24.166Z,10.28
2019-05-17T02:47:56.837Z,10.41
2019-05-17T02:50:27.191Z,10.46
2019-05-17T02:52:57.280Z,10.43
2019-05-17T02:55:27.434Z,10.40
2019-05-17T02:58:02.888Z,10.31
2019-05-17T03:00:33.821Z,10.28
2019-05-17T03:03:04.244Z,10.34
2019-05-17T03:05:34.393Z,10.35
2019-05-17T03:08:12.149Z,10.36
2019-05-17T03:10:44.054Z,10.42
2019-05-17T03:13:19.294Z,10.44
2019-05-17T03:15:53.141Z,10.47
2019-05-17T03:18:23.363Z,10.38
2019-05-17T03:20:53.617Z,10.41
2019-05-17T03:23:25.178Z,10.20
2019-05-17T03:26:04.515Z,10.35
2019-05-17T03:28:34.595Z,10.35
2019-05-17T03:31:08.626Z,10.34
2019-05-17T03:33:37.924Z,10.40
2019-05-17T03:36:08.267Z,10.38
2019-05-17T03:38:38.357Z,10.33
2019-05-17T03:41:22.850Z,10.29
2019-05-17T03:43:48.386Z,10.25
2019-05-17T03:46:23.204Z,10.25
2019-05-17T03:48:53.614Z,10.34
2019-05-17T03:51:23.764Z,10.28
2019-05-17T03:53:55.078Z,10.39
2019-05-17T03:56:25.249Z,10.18
2019-05-17T03:58:58.525Z,10.19
2019-05-17T04:01:32.825Z,10.22
2019-05-17T04:04:05.526Z,10.21
2019-05-17T04:06:35.683Z,10.34
2019-05-17T04:09:13.840Z,10.35
2019-05-17T04:11:44.150Z,10.47
2019-05-17T04:14:16.537Z,10.44
2019-05-17T04:16:49.383Z,10.31
2019-05-17T04:19:22.763Z,10.29
2019-05-17T04:21:53.684Z,10.47
2019-05-17T04:24:32.469Z,10.50
2019-05-17T04:27:03.795Z,10.57
2019-05-17T04:29:38.827Z,10.63
2019-05-17T04:32:12.988Z,10.57
2019-05-17T04:34:43.731Z,10.70
2019-05-17T04:37:14.063Z,10.80
2019-05-17T04:39:44.712Z,10.86
2019-05-17T04:42:22.877Z,10.94
2019-05-17T04:44:53.171Z,11.07
2019-05-17T04:47:23.337Z,11.11
2019-05-17T04:49:53.981Z,11.25
2019-05-17T04:52:25.200Z,11.25
2019-05-17T04:54:55.330Z,11.07
2019-05-17T04:57:27.207Z,11.14
2019-05-17T04:59:57.317Z,11.20
2019-05-17T05:02:32.773Z,11.36
2019-05-17T05:05:02.884Z,11.44
2019-05-17T05:07:33.641Z,11.49
2019-05-17T05:10:03.399Z,11.38
2019-05-17T05:12:33.872Z,11.40
2019-05-17T05:15:04.578Z,11.36
2019-05-17T05:17:34.877Z,11.08
2019-05-17T05:20:05.638Z,11.09
2019-05-17T05:22:35.834Z,11.05
2019-05-17T05:25:06.133Z,10.95
2019-05-17T05:27:36.289Z,10.82
2019-05-17T05:30:06.712Z,10.64
2019-05-17T05:32:37.774Z,10.62
2019-05-17T05:35:08.274Z,10.54
2019-05-17T05:37:38.921Z,10.35
2019-05-17T05:40:09.593Z,10.35
2019-05-17T05:42:42.261Z,10.42
2019-05-17T05:45:12.211Z,10.44
2019-05-17T05:47:43.299Z,10.51
2019-05-17T05:50:13.910Z,10.78
2019-05-17T05:52:44.756Z,10.79
2019-05-17T05:55:16.507Z,10.91
2019-05-17T05:57:46.627Z,11.20
2019-05-17T06:00:17.383Z,11.29
2019-05-17T06:02:47.476Z,11.43
2019-05-17T06:05:17.864Z,11.39
2019-05-17T06:07:48.011Z,11.60
2019-05-17T06:10:18.316Z,11.89
2019-05-17T06:12:48.460Z,12.15
2019-05-17T06:15:18.798Z,12.09
2019-05-17T06:17:48.999Z,11.72
2019-05-17T06:20:22.382Z,11.54
2019-05-17T06:22:52.167Z,11.33
2019-05-17T06:25:23.422Z,11.37
2019-05-17T06:27:53.684Z,10.98
2019-05-17T06:30:24.957Z,10.87
2019-05-17T06:32:55.118Z,10.97
2019-05-17T06:35:26.424Z,10.90
2019-05-17T06:37:56.605Z,10.90
2019-05-17T06:40:26.773Z,10.92
2019-05-17T06:42:56.899Z,10.78
2019-05-17T06:45:27.058Z,10.89
2019-05-17T06:47:57.186Z,10.94
2019-05-17T06:50:28.154Z,11.11
2019-05-17T06:52:58.790Z,11.34
2019-05-17T06:55:31.465Z,11.39
2019-05-17T06:58:02.605Z,11.50
2019-05-17T07:00:32.781Z,11.46
2019-05-17T07:03:02.931Z,11.45
2019-05-17T07:05:36.326Z,11.60
2019-05-17T07:08:06.567Z,11.72
2019-05-17T07:10:39.803Z,11.78
2019-05-17T07:13:10.599Z,11.91
2019-05-17T07:15:47.332Z,11.88
2019-05-17T07:18:13.180Z,11.96
2019-05-17T07:20:43.418Z,11.96
2019-05-17T07:23:13.602Z,12.33
2019-05-17T07:25:43.801Z,12.33
2019-05-17T07:28:15.554Z,12.52
2019-05-17T07:30:45.699Z,12.87
2019-05-17T07:33:15.817Z,13.16
2019-05-17T07:35:46.021Z,13.37
2019-05-17T07:38:16.218Z,13.60
2019-05-17T07:40:46.667Z,13.61
2019-05-17T07:43:16.990Z,13.58
2019-05-17T07:45:49.501Z,13.58
2019-05-17T07:48:20.314Z,13.82
2019-05-17T07:50:50.613Z,14.09
2019-05-17T07:53:21.830Z,14.34
2019-05-17T07:55:52.011Z,14.43
2019-05-17T07:58:22.157Z,14.56
2019-05-17T08:00:52.585Z,14.46
2019-05-17T08:03:25.933Z,14.46
2019-05-17T08:05:56.365Z,14.39
2019-05-17T08:08:26.507Z,14.22
2019-05-17T08:10:56.857Z,14.14
2019-05-17T08:13:30.542Z,13.94
2019-05-17T08:15:59.472Z,14.29
2019-05-17T08:18:29.878Z,14.59
2019-05-17T08:21:00.303Z,14.35
2019-05-17T08:23:32.166Z,14.40
2019-05-17T08:26:02.521Z,14.79
2019-05-17T08:28:32.979Z,14.91
2019-05-17T08:31:04.947Z,14.89
2019-05-17T08:33:35.106Z,14.69
2019-05-17T08:36:09.339Z,14.90
2019-05-17T08:38:39.630Z,14.66
2019-05-17T08:41:10.641Z,14.33
2019-05-17T08:43:46.734Z,14.10
2019-05-17T08:46:14.130Z,14.05
2019-05-17T08:48:44.412Z,14.21
2019-05-17T08:51:14.986Z,14.42
2019-05-17T08:53:45.137Z,14.37
2019-05-17T08:56:20.380Z,14.35
2019-05-17T08:58:50.941Z,14.49
2019-05-17T09:01:21.651Z,14.38
2019-05-17T09:03:51.755Z,14.37
2019-05-17T09:06:21.931Z,14.56
2019-05-17T09:08:52.121Z,14.49
2019-05-17T09:11:22.397Z,14.41
2019-05-17T09:13:57.930Z,14.70
2019-05-17T09:16:24.533Z,15.09
2019-05-17T09:18:55.051Z,15.30
2019-05-17T09:21:25.516Z,15.61
2019-05-17T09:23:55.893Z,15.84
2019-05-17T09:26:32.204Z,16.02
2019-05-17T09:29:03.935Z,15.84
2019-05-17T09:31:35.317Z,15.66
2019-05-17T09:34:05.685Z,15.86
2019-05-17T09:36:35.871Z,15.61
2019-05-17T09:39:09.480Z,15.80
2019-05-17T09:41:39.925Z,15.85
2019-05-17T09:44:15.903Z,15.94
2019-05-17T09:46:41.968Z,16.09
2019-05-17T09:49:12.128Z,15.92
2019-05-17T09:51:42.294Z,16.11
2019-05-17T09:54:12.471Z,16.34
2019-05-17T09:56:42.675Z,16.35
2019-05-17T09:59:12.887Z,16.45
2019-05-17T10:01:43.405Z,16.58
2019-05-17T10:04:14.030Z,16.13
2019-05-17T10:06:44.386Z,16.25
2019-05-17T10:09:15.915Z,16.53
2019-05-17T10:11:49.227Z,16.56
2019-05-17T10:14:27.665Z,16.30
2019-05-17T10:16:55.132Z,16.81
2019-05-17T10:19:25.398Z,16.89
2019-05-17T10:22:00.007Z,16.97
2019-05-17T10:24:37.831Z,16.64
2019-05-17T10:27:05.272Z,16.84
2019-05-17T10:29:35.701Z,17.03
2019-05-17T10:32:06.041Z,17.14
2019-05-17T10:34:37.407Z,17.48
2019-05-17T10:37:10.472Z,17.53
2019-05-17T10:39:41.692Z,17.42
2019-05-17T10:42:11.637Z,17.41
2019-05-17T10:44:47.383Z,17.63
2019-05-17T10:47:15.711Z,17.81
2019-05-17T10:49:45.973Z,18.19
2019-05-17T10:52:17.122Z,18.31
2019-05-17T10:54:49.995Z,17.93
2019-05-17T10:57:20.299Z,17.71
2019-05-17T10:59:50.903Z,17.86
2019-05-17T11:02:23.377Z,17.82
2019-05-17T11:04:53.672Z,17.68
2019-05-17T11:07:23.919Z,17.96
2019-05-17T11:10:00.331Z,17.97
2019-05-17T11:12:32.537Z,18.30
2019-05-17T11:15:11.080Z,18.31
2019-05-17T11:17:36.434Z,18.81
2019-05-17T11:20:08.368Z,18.80
2019-05-17T11:22:39.773Z,18.90
2019-05-17T11:25:11.581Z,18.32
2019-05-17T11:27:41.735Z,18.20
2019-05-17T11:30:13.382Z,17.96
2019-05-17T11:32:45.521Z,17.70
2019-05-17T11:35:15.761Z,17.12
2019-05-17T11:37:45.933Z,16.59
2019-05-17T11:40:16.363Z,16.47
2019-05-17T11:42:48.828Z,17.07
2019-05-17T11:45:29.103Z,17.61
2019-05-17T11:48:03.059Z,18.20
2019-05-17T11:50:33.376Z,18.71
2019-05-17T11:53:03.939Z,18.85
2019-05-17T11:55:36.404Z,18.74
2019-05-17T11:58:06.621Z,18.96
2019-05-17T12:00:36.819Z,18.87
2019-05-17T12:03:10.789Z,18.96
2019-05-17T12:05:41.080Z,18.94
2019-05-17T12:08:11.360Z,18.86
2019-05-17T12:10:41.853Z,18.90
2019-05-17T12:13:12.046Z,18.80
2019-05-17T12:15:45.742Z,18.82
2019-05-17T12:18:18.219Z,18.73
2019-05-17T12:20:54.854Z,18.70
2019-05-17T12:23:25.222Z,18.56
2019-05-17T12:25:55.374Z,18.42
2019-05-17T12:28:26.370Z,18.10
2019-05-17T12:30:56.978Z,18.26
2019-05-17T12:33:27.170Z,18.52
2019-05-17T12:35:57.382Z,18.42
2019-05-17T12:38:28.316Z,18.31
2019-05-17T12:40:59.635Z,18.36
2019-05-17T12:43:29.825Z,18.57
2019-05-17T12:46:01.667Z,17.92
2019-05-17T12:48:32.180Z,18.36
2019-05-17T12:51:02.785Z,18.01
2019-05-17T12:53:33.028Z,18.36
2019-05-17T12:56:03.277Z,18.57
2019-05-17T12:58:33.445Z,18.96
2019-05-17T13:01:03.581Z,18.94
2019-05-17T13:03:33.730Z,18.63
2019-05-17T13:06:03.818Z,19.01
2019-05-17T13:08:34.104Z,18.80
2019-05-17T13:11:04.337Z,18.67
2019-05-17T13:13:34.503Z,18.91
2019-05-17T13:16:17.619Z,18.84
2019-05-17T13:18:36.673Z,18.68
2019-05-17T13:21:09.242Z,18.34
2019-05-17T13:23:39.750Z,18.57
2019-05-17T13:26:11.141Z,18.54
2019-05-17T13:28:41.974Z,18.60
2019-05-17T13:31:12.653Z,18.54
2019-05-17T13:33:47.893Z,18.60
2019-05-17T13:36:21.415Z,17.84
2019-05-17T13:38:55.299Z,17.85
2019-05-17T13:41:39.105Z,17.92
2019-05-17T13:44:09.362Z,17.83
2019-05-17T13:46:45.646Z,17.88
2019-05-17T13:49:17.037Z,17.93
2019-05-17T13:51:47.960Z,17.89
2019-05-17T13:54:18.214Z,17.95
2019-05-17T13:56:48.348Z,18.33
2019-05-17T13:59:18.533Z,18.20
2019-05-17T14:01:48.756Z,18.06
2019-05-17T14:04:20.530Z,18.24
2019-05-17T14:06:50.644Z,18.26
2019-05-17T14:09:20.803Z,18.06
2019-05-17T14:11:51.004Z,18.09
2019-05-17T14:14:22.418Z,18.14
2019-05-17T14:16:53.445Z,18.20
2019-05-17T14:19:28.424Z,18.38
2019-05-17T14:22:02.448Z,18.27
2019-05-17T14:24:35.907Z,18.20
2019-05-17T14:27:06.221Z,18.52
2019-05-17T14:29:36.466Z,18.09
2019-05-17T14:32:09.182Z,18.12
2019-05-17T14:34:42.124Z,18.02
2019-05-17T14:37:12.336Z,17.99
2019-05-17T14:39:42.593Z,17.86
2019-05-17T14:42:12.732Z,17.84
2019-05-17T14:44:42.888Z,17.70
2019-05-17T14:47:14.436Z,17.85
2019-05-17T14:49:51.083Z,17.60
2019-05-17T14:52:19.805Z,17.42
2019-05-17T14:54:51.231Z,17.18
2019-05-17T14:57:21.933Z,17.34
2019-05-17T14:59:52.751Z,17.58
2019-05-17T15:02:29.855Z,17.62
2019-05-17T15:05:03.503Z,17.64
2019-05-17T15:07:33.627Z,17.47
2019-05-17T15:10:03.901Z,17.55
2019-05-17T15:12:36.571Z,17.45
2019-05-17T15:15:09.537Z,17.02
2019-05-17T15:17:40.305Z,16.76
2019-05-17T15:20:13.374Z,16.66
2019-05-17T15:22:44.973Z,16.72
2019-05-17T15:25:15.252Z,16.86
2019-05-17T15:27:48.887Z,17.43
2019-05-17T15:30:30.523Z,17.87
2019-05-17T15:33:00.964Z,17.93
2019-05-17T15:35:31.249Z,17.84
2019-05-17T15:38:01.571Z,17.76
2019-05-17T15:40:31.919Z,17.58
2019-05-17T15:43:02.217Z,17.18
2019-05-17T15:45:38.567Z,17.22
2019-05-17T15:48:08.775Z,17.04
2019-05-17T15:50:38.984Z,17.12
2019-05-17T15:53:09.166Z,17.23
2019-05-17T15:55:39.312Z,17.08
2019-05-17T15:58:09.608Z,17.07
2019-05-17T16:00:39.813Z,17.03
2019-05-17T16:03:14.474Z,17.19
2019-05-17T16:05:44.641Z,17.25
2019-05-17T16:08:19.195Z,17.56
2019-05-17T16:10:49.380Z,17.81
2019-05-17T16:13:19.716Z,18.25
2019-05-17T16:15:49.887Z,18.35
2019-05-17T16:18:20.075Z,18.01
2019-05-17T16:20:50.229Z,18.10
2019-05-17T16:23:23.549Z,18.13
2019-05-17T16:25:53.793Z,17.64
2019-05-17T16:28:23.982Z,17.83
2019-05-17T16:30:54.252Z,17.78
2019-05-17T16:33:24.705Z,17.59
2019-05-17T16:35:54.850Z,17.78
2019-05-17T16:38:27.783Z,17.59
2019-05-17T16:40:58.011Z,17.75
2019-05-17T16:43:28.253Z,17.80
2019-05-17T16:45:58.855Z,17.78
2019-05-17T16:48:29.133Z,17.69
2019-05-17T16:50:59.243Z,17.60
2019-05-17T16:53:29.499Z,17.68
2019-05-17T16:55:59.646Z,17.70
2019-05-17T16:58:31.867Z,17.73
2019-05-17T17:01:07.738Z,17.76
2019-05-17T17:03:44.232Z,17.55
2019-05-17T17:06:10.574Z,17.62
2019-05-17T17:08:42.209Z,17.54
2019-05-17T17:11:12.382Z,17.54
2019-05-17T17:13:42.940Z,17.38
2019-05-17T17:16:14.524Z,17.46
2019-05-17T17:18:44.977Z,17.38
2019-05-17T17:21:15.287Z,17.25
2019-05-17T17:23:45.564Z,17.36
2019-05-17T17:26:15.774Z,17.20
2019-05-17T17:28:46.036Z,17.19
2019-05-17T17:31:25.786Z,17.10
2019-05-17T17:33:54.446Z,16.98
2019-05-17T17:36:24.684Z,16.77
2019-05-17T17:38:55.812Z,16.95
2019-05-17T17:41:29.974Z,17.00
2019-05-17T17:44:03.495Z,16.95
2019-05-17T17:46:36.797Z,16.98
2019-05-17T17:49:07.174Z,17.04
2019-05-17T17:51:37.291Z,16.89
2019-05-17T17:54:07.433Z,16.92
2019-05-17T17:56:37.761Z,16.79
2019-05-17T17:59:10.527Z,16.64
2019-05-17T18:01:41.692Z,16.86
2019-05-17T18:04:11.957Z,16.75
2019-05-17T18:06:42.410Z,16.70
2019-05-17T18:09:12.635Z,16.76
2019-05-17T18:11:49.934Z,16.71
2019-05-17T18:14:20.176Z,16.53
2019-05-17T18:16:50.300Z,16.45
2019-05-17T18:19:20.644Z,16.45
2019-05-17T18:21:51.574Z,16.36
2019-05-17T18:24:32.183Z,16.13
2019-05-17T18:27:02.446Z,15.95
2019-05-17T18:29:34.244Z,15.91
2019-05-17T18:32:05.449Z,15.81
2019-05-17T18:34:35.610Z,15.78
2019-05-17T18:37:07.532Z,15.71
2019-05-17T18:39:38.136Z,15.57
2019-05-17T18:42:08.459Z,15.48
2019-05-17T18:44:38.690Z,15.39
2019-05-17T18:47:09.009Z,15.30
2019-05-17T18:49:42.748Z,15.22
2019-05-17T18:52:15.968Z,15.14
2019-05-17T18:54:45.448Z,15.03
2019-05-17T18:57:15.714Z,14.96
2019-05-17T18:59:45.883Z,14.88
2019-05-17T19:02:16.269Z,14.77
2019-05-17T19:04:46.560Z,14.70
2019-05-17T19:07:19.788Z,14.63
2019-05-17T19:09:50.006Z,14.54
2019-05-17T19:12:20.226Z,14.47
2019-05-17T19:14:50.562Z,14.38
2019-05-17T19:17:20.832Z,14.31
2019-05-17T19:19:51.042Z,14.22
2019-05-17T19:22:22.811Z,14.15
2019-05-17T19:24:55.536Z,14.07
2019-05-17T19:27:25.772Z,14.01
2019-05-17T19:29:55.953Z,13.93
2019-05-17T19:32:26.174Z,13.87
2019-05-17T19:34:56.550Z,13.80
2019-05-17T19:37:26.921Z,13.73
2019-05-17T19:40:03.572Z,13.68
2019-05-17T19:42:34.067Z,13.61
2019-05-17T19:45:04.658Z,13.53
2019-05-17T19:47:35.164Z,13.49
2019-05-17T19:50:05.974Z,13.44
2019-05-17T19:52:36.292Z,13.39
2019-05-17T19:55:08.734Z,13.35
2019-05-17T19:57:39.089Z,13.27
2019-05-17T20:00:10.242Z,13.22
2019-05-17T20:02:40.637Z,13.17
2019-05-17T20:05:12.065Z,13.04
2019-05-17T20:07:43.506Z,13.04
2019-05-17T20:10:18.442Z,13.00
2019-05-17T20:12:48.766Z,12.96
2019-05-17T20:15:33.513Z,12.92
2019-05-17T20:17:52.108Z,12.86
2019-05-17T20:20:22.806Z,12.77
2019-05-17T20:23:00.952Z,12.73
2019-05-17T20:25:31.602Z,12.71
2019-05-17T20:28:05.640Z,12.65
2019-05-17T20:30:50.900Z,12.61
2019-05-17T20:33:24.916Z,12.59
2019-05-17T20:35:55.518Z,12.54
2019-05-17T20:38:26.045Z,12.48
2019-05-17T20:40:56.245Z,12.42
2019-05-17T20:43:30.309Z,12.37
2019-05-17T20:46:00.596Z,12.36
2019-05-17T20:48:31.019Z,12.30
2019-05-17T20:51:01.230Z,12.29
2019-05-17T20:53:31.630Z,12.24
2019-05-17T20:56:02.211Z,12.21
2019-05-17T20:58:32.967Z,12.20
2019-05-17T21:01:05.596Z,12.16
2019-05-17T21:03:36.184Z,12.14
2019-05-17T21:06:06.777Z,12.11
2019-05-17T21:08:45.482Z,12.04
2019-05-17T21:11:09.345Z,11.97
2019-05-17T21:13:39.725Z,11.89
2019-05-17T21:16:10.068Z,11.95
2019-05-17T21:18:40.437Z,11.92
2019-05-17T21:21:10.847Z,11.75
2019-05-17T21:23:42.539Z,11.84
2019-05-17T21:26:12.884Z,11.84
2019-05-17T21:28:43.328Z,11.80
2019-05-17T21:31:14.075Z,11.79
2019-05-17T21:33:44.672Z,11.78
2019-05-17T21:36:15.153Z,11.73
2019-05-17T21:38:45.563Z,11.66
2019-05-17T21:41:15.859Z,11.70
2019-05-17T21:43:46.407Z,11.50
2019-05-17T21:46:16.935Z,11.60
2019-05-17T21:48:47.444Z,11.61
2019-05-17T21:51:18.867Z,11.61
2019-05-17T21:53:49.191Z,11.61
2019-05-17T21:56:21.716Z,11.58
2019-05-17T21:58:52.413Z,11.59
2019-05-17T22:01:25.566Z,11.54
2019-05-17T22:03:56.247Z,11.52
2019-05-17T22:06:26.666Z,11.50
2019-05-17T22:09:01.262Z,11.49
2019-05-17T22:11:33.236Z,11.43
2019-05-17T22:14:03.528Z,11.42
2019-05-17T22:16:33.677Z,11.41
2019-05-17T22:19:04.861Z,11.38
2019-05-17T22:21:35.022Z,11.36
2019-05-17T22:24:05.213Z,11.33
2019-05-17T22:26:35.315Z,11.32
2019-05-17T22:29:05.477Z,11.29
2019-05-17T22:31:38.863Z,11.26
2019-05-17T22:34:07.446Z,11.24
2019-05-17T22:36:37.533Z,11.20
2019-05-17T22:39:08.353Z,11.17
2019-05-17T22:41:38.521Z,11.15
2019-05-17T22:44:08.683Z,11.09
2019-05-17T22:46:38.775Z,11.08
2019-05-17T22:49:08.949Z,10.96
2019-05-17T22:51:39.099Z,11.01
2019-05-17T22:54:10.119Z,10.98
2019-05-17T22:56:40.235Z,10.96
2019-05-17T22:59:10.447Z,10.87
2019-05-17T23:01:40.561Z,10.88
2019-05-17T23:04:10.695Z,10.87
2019-05-17T23:06:40.828Z,10.85
2019-05-17T23:09:10.976Z,10.82
2019-05-17T23:11:41.098Z,10.80
2019-05-17T23:14:11.369Z,10.70
2019-05-17T23:16:50.993Z,10.73
2019-05-17T23:19:13.515Z,10.75
2019-05-17T23:21:44.231Z,10.71
2019-05-17T23:24:15.445Z,10.70
2019-05-17T23:26:47.221Z,10.69
2019-05-17T23:29:17.477Z,10.67
2019-05-17T23:31:47.559Z,10.64
2019-05-17T23:34:17.884Z,10.60
2019-05-17T23:36:48.921Z,10.60
2019-05-17T23:39:23.941Z,10.56
2019-05-17T23:41:57.696Z,10.54
2019-05-17T23:44:27.893Z,10.48
2019-05-17T23:47:06.784Z,10.47
2019-05-17T23:49:29.876Z,10.45
2019-05-17T23:52:00.004Z,10.43
2019-05-17T23:54:30.211Z,10.39
2019-05-17T23:57:00.443Z,10.38
2019-05-17T23:59:30.551Z,10.34
